sensor_id;sensor_type;location;lat;lon;timestamp;P1;durP1;ratioP1;P2;durP2;ratioP2
21825;SDS011;11075;47.944;11.776;2023-12-07T00:00:00;19.67;;;10.90;;
21825;SDS011;11075;47.944;11.776;2023-12-07T00:02:29;19.63;;;11.47;;
21825;SDS011;11075;47.944;11.776;2023-12-07T00:04:56;20.33;;;10.83;;
21825;SDS011;11075;47.944;11.776;2023-12-07T00:07:23;20.83;;;11.60;;
21825;SDS011;11075;47.944;11.776;2023-12-07T00:09:50;20.40;;;11.47;;
21825;SDS011;11075;47.944;11.776;2023-12-07T00:12:17;20.37;;;11.07;;
21825;SDS011;11075;47.944;11.776;2023-12-07T00:14:44;20.23;;;11.17;;
21825;SDS011;11075;47.944;11.776;2023-12-07T00:17:12;18.87;;;10.93;;
21825;SDS011;11075;47.944;11.776;2023-12-07T00:19:38;19.83;;;10.90;;
21825;SDS011;11075;47.944;11.776;2023-12-07T00:22:05;22.53;;;11.67;;
21825;SDS011;11075;47.944;11.776;2023-12-07T00:24:32;21.70;;;10.83;;
21825;SDS011;11075;47.944;11.776;2023-12-07T00:26:59;19.23;;;10.73;;
21825;SDS011;11075;47.944;11.776;2023-12-07T00:29:26;24.67;;;11.30;;
21825;SDS011;11075;47.944;11.776;2023-12-07T00:31:52;19.73;;;10.50;;
21825;SDS011;11075;47.944;11.776;2023-12-07T00:34:19;24.10;;;11.57;;
21825;SDS011;11075;47.944;11.776;2023-12-07T00:36:46;20.00;;;11.63;;
21825;SDS011;11075;47.944;11.776;2023-12-07T00:39:13;20.93;;;11.47;;
21825;SDS011;11075;47.944;11.776;2023-12-07T00:41:40;26.63;;;12.23;;
21825;SDS011;11075;47.944;11.776;2023-12-07T00:44:06;20.77;;;11.47;;
21825;SDS011;11075;47.944;11.776;2023-12-07T00:46:33;21.57;;;11.83;;
21825;SDS011;11075;47.944;11.776;2023-12-07T00:49:00;21.53;;;11.13;;
21825;SDS011;11075;47.944;11.776;2023-12-07T00:51:27;20.47;;;11.40;;
21825;SDS011;11075;47.944;11.776;2023-12-07T00:53:54;23.87;;;11.67;;
21825;SDS011;11075;47.944;11.776;2023-12-07T00:56:20;23.37;;;12.63;;
21825;SDS011;11075;47.944;11.776;2023-12-07T00:58:47;21.17;;;11.57;;
21825;SDS011;11075;47.944;11.776;2023-12-07T01:01:14;22.90;;;11.93;;
21825;SDS011;11075;47.944;11.776;2023-12-07T01:03:41;23.40;;;12.43;;
21825;SDS011;11075;47.944;11.776;2023-12-07T01:06:08;27.60;;;12.50;;
21825;SDS011;11075;47.944;11.776;2023-12-07T01:08:38;22.03;;;12.37;;
21825;SDS011;11075;47.944;11.776;2023-12-07T01:11:04;25.77;;;12.23;;
21825;SDS011;11075;47.944;11.776;2023-12-07T01:13:31;25.57;;;12.83;;
21825;SDS011;11075;47.944;11.776;2023-12-07T01:15:58;23.90;;;11.80;;
21825;SDS011;11075;47.944;11.776;2023-12-07T01:18:25;23.60;;;12.23;;
21825;SDS011;11075;47.944;11.776;2023-12-07T01:20:52;24.27;;;11.70;;
21825;SDS011;11075;47.944;11.776;2023-12-07T01:23:19;25.23;;;12.43;;
21825;SDS011;11075;47.944;11.776;2023-12-07T01:25:46;23.37;;;12.17;;
21825;SDS011;11075;47.944;11.776;2023-12-07T01:28:13;22.17;;;12.40;;
21825;SDS011;11075;47.944;11.776;2023-12-07T01:30:40;25.10;;;12.37;;
21825;SDS011;11075;47.944;11.776;2023-12-07T01:33:07;22.53;;;12.20;;
21825;SDS011;11075;47.944;11.776;2023-12-07T01:35:34;22.90;;;12.23;;
21825;SDS011;11075;47.944;11.776;2023-12-07T01:38:01;24.03;;;12.57;;
21825;SDS011;11075;47.944;11.776;2023-12-07T01:40:28;24.53;;;12.60;;
21825;SDS011;11075;47.944;11.776;2023-12-07T01:42:54;25.67;;;12.40;;
21825;SDS011;11075;47.944;11.776;2023-12-07T01:45:21;25.83;;;14.40;;
21825;SDS011;11075;47.944;11.776;2023-12-07T01:47:49;26.97;;;14.10;;
21825;SDS011;11075;47.944;11.776;2023-12-07T01:50:19;31.27;;;16.77;;
21825;SDS011;11075;47.944;11.776;2023-12-07T01:52:54;70.30;;;33.00;;
21825;SDS011;11075;47.944;11.776;2023-12-07T01:55:23;52.90;;;26.67;;
21825;SDS011;11075;47.944;11.776;2023-12-07T01:57:51;61.40;;;29.27;;
21825;SDS011;11075;47.944;11.776;2023-12-07T02:00:18;100.17;;;43.80;;
21825;SDS011;11075;47.944;11.776;2023-12-07T02:02:46;84.17;;;41.20;;
21825;SDS011;11075;47.944;11.776;2023-12-07T02:05:13;49.40;;;24.43;;
21825;SDS011;11075;47.944;11.776;2023-12-07T02:07:42;35.27;;;18.43;;
21825;SDS011;11075;47.944;11.776;2023-12-07T02:10:10;34.30;;;17.80;;
21825;SDS011;11075;47.944;11.776;2023-12-07T02:12:37;32.90;;;16.17;;
21825;SDS011;11075;47.944;11.776;2023-12-07T02:15:04;33.53;;;15.23;;
21825;SDS011;11075;47.944;11.776;2023-12-07T02:17:38;31.77;;;15.90;;
21825;SDS011;11075;47.944;11.776;2023-12-07T02:22:55;29.30;;;14.83;;
21825;SDS011;11075;47.944;11.776;2023-12-07T02:25:26;33.63;;;16.00;;
21825;SDS011;11075;47.944;11.776;2023-12-07T02:27:58;34.20;;;16.90;;
21825;SDS011;11075;47.944;11.776;2023-12-07T02:30:24;32.87;;;16.97;;
21825;SDS011;11075;47.944;11.776;2023-12-07T02:32:51;32.20;;;16.13;;
21825;SDS011;11075;47.944;11.776;2023-12-07T02:35:18;31.57;;;15.27;;
21825;SDS011;11075;47.944;11.776;2023-12-07T02:37:48;30.10;;;14.37;;
21825;SDS011;11075;47.944;11.776;2023-12-07T02:40:21;32.13;;;14.57;;
21825;SDS011;11075;47.944;11.776;2023-12-07T02:42:50;31.17;;;15.67;;
21825;SDS011;11075;47.944;11.776;2023-12-07T02:45:19;34.83;;;16.03;;
21825;SDS011;11075;47.944;11.776;2023-12-07T02:47:46;37.77;;;16.80;;
21825;SDS011;11075;47.944;11.776;2023-12-07T02:50:13;31.47;;;15.00;;
21825;SDS011;11075;47.944;11.776;2023-12-07T02:52:40;29.90;;;14.70;;
21825;SDS011;11075;47.944;11.776;2023-12-07T02:55:07;32.87;;;15.50;;
21825;SDS011;11075;47.944;11.776;2023-12-07T02:57:35;31.83;;;15.53;;
21825;SDS011;11075;47.944;11.776;2023-12-07T03:00:03;31.77;;;15.37;;
21825;SDS011;11075;47.944;11.776;2023-12-07T03:02:36;30.83;;;14.73;;
21825;SDS011;11075;47.944;11.776;2023-12-07T03:05:04;39.20;;;16.53;;
21825;SDS011;11075;47.944;11.776;2023-12-07T03:07:31;30.50;;;15.47;;
21825;SDS011;11075;47.944;11.776;2023-12-07T03:09:58;36.73;;;16.53;;
21825;SDS011;11075;47.944;11.776;2023-12-07T03:12:25;37.90;;;16.30;;
21825;SDS011;11075;47.944;11.776;2023-12-07T03:14:52;32.47;;;15.37;;
21825;SDS011;11075;47.944;11.776;2023-12-07T03:17:19;36.40;;;16.33;;
21825;SDS011;11075;47.944;11.776;2023-12-07T03:19:46;36.43;;;15.60;;
21825;SDS011;11075;47.944;11.776;2023-12-07T03:22:13;35.80;;;16.90;;
21825;SDS011;11075;47.944;11.776;2023-12-07T03:24:40;34.40;;;15.83;;
21825;SDS011;11075;47.944;11.776;2023-12-07T03:27:12;39.50;;;17.63;;
21825;SDS011;11075;47.944;11.776;2023-12-07T03:29:38;38.80;;;16.80;;
21825;SDS011;11075;47.944;11.776;2023-12-07T03:32:05;38.20;;;16.90;;
21825;SDS011;11075;47.944;11.776;2023-12-07T03:34:32;34.07;;;16.43;;
21825;SDS011;11075;47.944;11.776;2023-12-07T03:36:59;36.97;;;15.97;;
21825;SDS011;11075;47.944;11.776;2023-12-07T03:39:26;35.53;;;16.33;;
21825;SDS011;11075;47.944;11.776;2023-12-07T03:41:53;38.83;;;16.57;;
21825;SDS011;11075;47.944;11.776;2023-12-07T03:44:20;31.83;;;15.23;;
21825;SDS011;11075;47.944;11.776;2023-12-07T03:46:47;33.00;;;16.30;;
21825;SDS011;11075;47.944;11.776;2023-12-07T03:49:14;37.37;;;16.17;;
21825;SDS011;11075;47.944;11.776;2023-12-07T03:51:41;37.30;;;15.43;;
21825;SDS011;11075;47.944;11.776;2023-12-07T03:54:08;35.10;;;15.57;;
21825;SDS011;11075;47.944;11.776;2023-12-07T03:56:35;35.70;;;15.07;;
21825;SDS011;11075;47.944;11.776;2023-12-07T03:59:02;32.93;;;15.90;;
21825;SDS011;11075;47.944;11.776;2023-12-07T04:01:29;34.23;;;15.37;;
21825;SDS011;11075;47.944;11.776;2023-12-07T04:03:56;34.60;;;15.27;;
21825;SDS011;11075;47.944;11.776;2023-12-07T04:06:27;35.13;;;15.40;;
21825;SDS011;11075;47.944;11.776;2023-12-07T04:08:54;31.83;;;15.00;;
21825;SDS011;11075;47.944;11.776;2023-12-07T04:11:20;37.57;;;15.37;;
21825;SDS011;11075;47.944;11.776;2023-12-07T04:13:47;35.60;;;15.10;;
21825;SDS011;11075;47.944;11.776;2023-12-07T04:16:14;34.47;;;15.63;;
21825;SDS011;11075;47.944;11.776;2023-12-07T04:18:41;33.30;;;14.43;;
21825;SDS011;11075;47.944;11.776;2023-12-07T04:21:08;32.57;;;14.93;;
21825;SDS011;11075;47.944;11.776;2023-12-07T04:23:35;29.70;;;14.43;;
21825;SDS011;11075;47.944;11.776;2023-12-07T04:26:02;31.67;;;14.87;;
21825;SDS011;11075;47.944;11.776;2023-12-07T04:28:29;31.43;;;13.93;;
21825;SDS011;11075;47.944;11.776;2023-12-07T04:30:56;30.80;;;14.67;;
21825;SDS011;11075;47.944;11.776;2023-12-07T04:33:23;27.00;;;14.17;;
21825;SDS011;11075;47.944;11.776;2023-12-07T04:35:50;28.23;;;13.80;;
21825;SDS011;11075;47.944;11.776;2023-12-07T04:38:16;27.97;;;13.63;;
21825;SDS011;11075;47.944;11.776;2023-12-07T04:40:43;30.97;;;13.67;;
21825;SDS011;11075;47.944;11.776;2023-12-07T04:43:10;27.97;;;14.20;;
21825;SDS011;11075;47.944;11.776;2023-12-07T04:45:37;26.53;;;13.57;;
21825;SDS011;11075;47.944;11.776;2023-12-07T04:48:05;27.10;;;14.30;;
21825;SDS011;11075;47.944;11.776;2023-12-07T04:50:32;28.83;;;13.80;;
21825;SDS011;11075;47.944;11.776;2023-12-07T04:52:58;27.03;;;13.37;;
21825;SDS011;11075;47.944;11.776;2023-12-07T04:55:25;29.47;;;14.73;;
21825;SDS011;11075;47.944;11.776;2023-12-07T04:57:53;29.57;;;14.13;;
21825;SDS011;11075;47.944;11.776;2023-12-07T05:00:20;29.30;;;13.90;;
21825;SDS011;11075;47.944;11.776;2023-12-07T05:02:48;29.33;;;15.00;;
21825;SDS011;11075;47.944;11.776;2023-12-07T05:05:15;29.43;;;13.97;;
21825;SDS011;11075;47.944;11.776;2023-12-07T05:07:42;24.07;;;12.83;;
21825;SDS011;11075;47.944;11.776;2023-12-07T05:10:09;28.93;;;15.30;;
21825;SDS011;11075;47.944;11.776;2023-12-07T05:12:36;30.63;;;14.97;;
21825;SDS011;11075;47.944;11.776;2023-12-07T05:15:03;27.70;;;13.77;;
21825;SDS011;11075;47.944;11.776;2023-12-07T05:17:32;35.97;;;15.50;;
21825;SDS011;11075;47.944;11.776;2023-12-07T05:19:59;29.07;;;15.20;;
21825;SDS011;11075;47.944;11.776;2023-12-07T05:22:26;30.10;;;14.93;;
21825;SDS011;11075;47.944;11.776;2023-12-07T05:24:54;32.27;;;15.00;;
21825;SDS011;11075;47.944;11.776;2023-12-07T05:27:21;30.33;;;13.97;;
21825;SDS011;11075;47.944;11.776;2023-12-07T05:29:48;25.53;;;12.70;;
21825;SDS011;11075;47.944;11.776;2023-12-07T05:32:15;28.40;;;13.47;;
21825;SDS011;11075;47.944;11.776;2023-12-07T05:34:42;28.93;;;14.00;;
21825;SDS011;11075;47.944;11.776;2023-12-07T05:37:10;29.10;;;13.77;;
21825;SDS011;11075;47.944;11.776;2023-12-07T05:39:37;27.70;;;13.93;;
21825;SDS011;11075;47.944;11.776;2023-12-07T05:42:05;28.40;;;14.00;;
21825;SDS011;11075;47.944;11.776;2023-12-07T05:44:32;24.43;;;13.97;;
21825;SDS011;11075;47.944;11.776;2023-12-07T05:46:59;24.40;;;13.07;;
21825;SDS011;11075;47.944;11.776;2023-12-07T05:49:25;25.97;;;13.13;;
21825;SDS011;11075;47.944;11.776;2023-12-07T05:51:52;28.37;;;14.57;;
21825;SDS011;11075;47.944;11.776;2023-12-07T05:54:20;23.93;;;12.47;;
21825;SDS011;11075;47.944;11.776;2023-12-07T05:56:50;24.93;;;12.70;;
21825;SDS011;11075;47.944;11.776;2023-12-07T05:59:16;24.57;;;12.70;;
21825;SDS011;11075;47.944;11.776;2023-12-07T06:01:43;26.37;;;12.97;;
21825;SDS011;11075;47.944;11.776;2023-12-07T06:04:10;23.43;;;12.37;;
21825;SDS011;11075;47.944;11.776;2023-12-07T06:06:39;24.50;;;13.17;;
21825;SDS011;11075;47.944;11.776;2023-12-07T06:09:06;26.73;;;12.53;;
21825;SDS011;11075;47.944;11.776;2023-12-07T06:11:34;27.33;;;13.37;;
21825;SDS011;11075;47.944;11.776;2023-12-07T06:14:01;28.53;;;13.10;;
21825;SDS011;11075;47.944;11.776;2023-12-07T06:16:29;26.97;;;13.20;;
21825;SDS011;11075;47.944;11.776;2023-12-07T06:18:56;25.60;;;13.37;;
21825;SDS011;11075;47.944;11.776;2023-12-07T06:21:24;27.33;;;13.40;;
21825;SDS011;11075;47.944;11.776;2023-12-07T06:23:52;25.70;;;12.80;;
21825;SDS011;11075;47.944;11.776;2023-12-07T06:26:19;28.23;;;14.10;;
21825;SDS011;11075;47.944;11.776;2023-12-07T06:28:46;25.20;;;14.00;;
21825;SDS011;11075;47.944;11.776;2023-12-07T06:31:13;31.17;;;15.00;;
21825;SDS011;11075;47.944;11.776;2023-12-07T06:33:42;24.63;;;13.47;;
21825;SDS011;11075;47.944;11.776;2023-12-07T06:36:09;32.43;;;14.03;;
21825;SDS011;11075;47.944;11.776;2023-12-07T06:38:36;30.33;;;13.50;;
21825;SDS011;11075;47.944;11.776;2023-12-07T06:41:05;30.33;;;13.93;;
21825;SDS011;11075;47.944;11.776;2023-12-07T06:43:32;28.10;;;12.97;;
21825;SDS011;11075;47.944;11.776;2023-12-07T06:45:59;26.80;;;12.67;;
21825;SDS011;11075;47.944;11.776;2023-12-07T06:48:26;23.70;;;12.13;;
21825;SDS011;11075;47.944;11.776;2023-12-07T06:50:53;25.10;;;12.73;;
21825;SDS011;11075;47.944;11.776;2023-12-07T06:53:19;27.60;;;12.57;;
21825;SDS011;11075;47.944;11.776;2023-12-07T06:55:46;26.50;;;12.83;;
21825;SDS011;11075;47.944;11.776;2023-12-07T06:58:13;28.67;;;13.07;;
21825;SDS011;11075;47.944;11.776;2023-12-07T07:00:40;25.97;;;12.47;;
21825;SDS011;11075;47.944;11.776;2023-12-07T07:03:07;25.07;;;12.50;;
21825;SDS011;11075;47.944;11.776;2023-12-07T07:05:34;24.17;;;11.90;;
21825;SDS011;11075;47.944;11.776;2023-12-07T07:08:01;24.57;;;12.23;;
21825;SDS011;11075;47.944;11.776;2023-12-07T07:10:28;27.30;;;12.87;;
21825;SDS011;11075;47.944;11.776;2023-12-07T07:12:55;24.83;;;12.17;;
21825;SDS011;11075;47.944;11.776;2023-12-07T07:15:26;25.47;;;11.67;;
21825;SDS011;11075;47.944;11.776;2023-12-07T07:17:53;26.03;;;12.80;;
21825;SDS011;11075;47.944;11.776;2023-12-07T07:20:20;21.00;;;11.00;;
21825;SDS011;11075;47.944;11.776;2023-12-07T07:22:47;20.93;;;10.27;;
21825;SDS011;11075;47.944;11.776;2023-12-07T07:25:14;41.87;;;9.87;;
21825;SDS011;11075;47.944;11.776;2023-12-07T07:27:42;24.77;;;7.30;;
21825;SDS011;11075;47.944;11.776;2023-12-07T07:30:09;11.00;;;6.40;;
21825;SDS011;11075;47.944;11.776;2023-12-07T07:32:37;10.23;;;5.87;;
21825;SDS011;11075;47.944;11.776;2023-12-07T07:35:04;13.40;;;6.90;;
21825;SDS011;11075;47.944;11.776;2023-12-07T07:37:31;13.37;;;6.73;;
21825;SDS011;11075;47.944;11.776;2023-12-07T07:39:57;16.80;;;7.50;;
21825;SDS011;11075;47.944;11.776;2023-12-07T07:42:26;20.17;;;8.07;;
21825;SDS011;11075;47.944;11.776;2023-12-07T07:44:53;16.60;;;8.07;;
21825;SDS011;11075;47.944;11.776;2023-12-07T07:47:20;47.37;;;17.10;;
21825;SDS011;11075;47.944;11.776;2023-12-07T07:49:47;22.20;;;11.60;;
21825;SDS011;11075;47.944;11.776;2023-12-07T07:52:14;12.93;;;7.47;;
21825;SDS011;11075;47.944;11.776;2023-12-07T07:54:40;12.83;;;8.47;;
21825;SDS011;11075;47.944;11.776;2023-12-07T07:57:07;18.27;;;9.07;;
21825;SDS011;11075;47.944;11.776;2023-12-07T07:59:34;28.80;;;16.77;;
21825;SDS011;11075;47.944;11.776;2023-12-07T08:02:01;56.50;;;30.73;;
21825;SDS011;11075;47.944;11.776;2023-12-07T08:04:28;94.80;;;53.47;;
21825;SDS011;11075;47.944;11.776;2023-12-07T08:06:54;64.40;;;32.63;;
21825;SDS011;11075;47.944;11.776;2023-12-07T08:09:21;38.53;;;19.80;;
21825;SDS011;11075;47.944;11.776;2023-12-07T08:11:48;28.80;;;16.13;;
21825;SDS011;11075;47.944;11.776;2023-12-07T08:14:15;27.20;;;13.70;;
21825;SDS011;11075;47.944;11.776;2023-12-07T08:16:43;15.33;;;9.07;;
21825;SDS011;11075;47.944;11.776;2023-12-07T08:19:11;24.33;;;14.93;;
21825;SDS011;11075;47.944;11.776;2023-12-07T08:21:38;13.33;;;8.43;;
21825;SDS011;11075;47.944;11.776;2023-12-07T08:24:05;16.27;;;10.37;;
21825;SDS011;11075;47.944;11.776;2023-12-07T08:26:32;22.37;;;13.03;;
21825;SDS011;11075;47.944;11.776;2023-12-07T08:28:59;23.33;;;13.17;;
21825;SDS011;11075;47.944;11.776;2023-12-07T08:31:26;21.30;;;11.43;;
21825;SDS011;11075;47.944;11.776;2023-12-07T08:33:53;20.00;;;11.47;;
21825;SDS011;11075;47.944;11.776;2023-12-07T08:36:20;29.00;;;17.53;;
21825;SDS011;11075;47.944;11.776;2023-12-07T08:38:47;23.97;;;14.97;;
21825;SDS011;11075;47.944;11.776;2023-12-07T08:41:14;28.43;;;16.40;;
21825;SDS011;11075;47.944;11.776;2023-12-07T08:43:41;39.23;;;23.50;;
21825;SDS011;11075;47.944;11.776;2023-12-07T08:46:08;21.07;;;13.27;;
21825;SDS011;11075;47.944;11.776;2023-12-07T08:48:36;20.10;;;11.27;;
21825;SDS011;11075;47.944;11.776;2023-12-07T08:51:08;30.03;;;18.50;;
21825;SDS011;11075;47.944;11.776;2023-12-07T08:53:35;17.37;;;10.60;;
21825;SDS011;11075;47.944;11.776;2023-12-07T08:56:02;20.00;;;10.83;;
21825;SDS011;11075;47.944;11.776;2023-12-07T08:58:30;18.47;;;10.60;;
21825;SDS011;11075;47.944;11.776;2023-12-07T09:00:57;15.47;;;9.67;;
21825;SDS011;11075;47.944;11.776;2023-12-07T09:03:24;24.33;;;15.90;;
21825;SDS011;11075;47.944;11.776;2023-12-07T09:05:59;40.37;;;23.80;;
21825;SDS011;11075;47.944;11.776;2023-12-07T09:08:27;17.80;;;11.67;;
21825;SDS011;11075;47.944;11.776;2023-12-07T09:10:54;16.60;;;10.00;;
21825;SDS011;11075;47.944;11.776;2023-12-07T09:13:20;16.20;;;10.20;;
21825;SDS011;11075;47.944;11.776;2023-12-07T09:15:47;15.23;;;9.20;;
21825;SDS011;11075;47.944;11.776;2023-12-07T09:18:14;18.30;;;10.70;;
21825;SDS011;11075;47.944;11.776;2023-12-07T09:20:41;15.53;;;9.00;;
21825;SDS011;11075;47.944;11.776;2023-12-07T09:23:12;13.90;;;9.30;;
21825;SDS011;11075;47.944;11.776;2023-12-07T09:25:42;12.70;;;7.63;;
21825;SDS011;11075;47.944;11.776;2023-12-07T09:28:10;13.47;;;8.07;;
21825;SDS011;11075;47.944;11.776;2023-12-07T09:30:37;9.40;;;6.23;;
21825;SDS011;11075;47.944;11.776;2023-12-07T09:33:04;12.37;;;6.03;;
21825;SDS011;11075;47.944;11.776;2023-12-07T09:35:31;9.37;;;6.30;;
21825;SDS011;11075;47.944;11.776;2023-12-07T09:38:01;9.43;;;5.00;;
21825;SDS011;11075;47.944;11.776;2023-12-07T09:40:29;8.03;;;4.97;;
21825;SDS011;11075;47.944;11.776;2023-12-07T09:42:57;9.20;;;6.40;;
21825;SDS011;11075;47.944;11.776;2023-12-07T09:45:24;11.07;;;5.63;;
21825;SDS011;11075;47.944;11.776;2023-12-07T09:47:54;7.77;;;5.77;;
21825;SDS011;11075;47.944;11.776;2023-12-07T09:50:22;7.47;;;5.50;;
21825;SDS011;11075;47.944;11.776;2023-12-07T09:52:52;8.30;;;5.00;;
21825;SDS011;11075;47.944;11.776;2023-12-07T09:55:33;7.20;;;5.10;;
21825;SDS011;11075;47.944;11.776;2023-12-07T09:58:03;5.20;;;3.93;;
21825;SDS011;11075;47.944;11.776;2023-12-07T10:00:32;8.20;;;4.70;;
21825;SDS011;11075;47.944;11.776;2023-12-07T10:03:00;8.77;;;5.40;;
21825;SDS011;11075;47.944;11.776;2023-12-07T10:05:26;5.80;;;3.97;;
21825;SDS011;11075;47.944;11.776;2023-12-07T10:07:54;8.13;;;4.80;;
21825;SDS011;11075;47.944;11.776;2023-12-07T10:10:21;6.33;;;4.93;;
21825;SDS011;11075;47.944;11.776;2023-12-07T10:12:54;7.73;;;4.90;;
21825;SDS011;11075;47.944;11.776;2023-12-07T10:15:23;6.43;;;4.47;;
21825;SDS011;11075;47.944;11.776;2023-12-07T10:17:56;6.30;;;4.67;;
21825;SDS011;11075;47.944;11.776;2023-12-07T10:20:24;6.17;;;4.73;;
21825;SDS011;11075;47.944;11.776;2023-12-07T10:23:09;8.13;;;6.47;;
21825;SDS011;11075;47.944;11.776;2023-12-07T10:25:39;7.47;;;4.80;;
21825;SDS011;11075;47.944;11.776;2023-12-07T10:28:08;6.27;;;4.87;;
21825;SDS011;11075;47.944;11.776;2023-12-07T10:30:40;6.30;;;4.50;;
21825;SDS011;11075;47.944;11.776;2023-12-07T10:33:10;7.50;;;5.00;;
21825;SDS011;11075;47.944;11.776;2023-12-07T10:35:40;5.50;;;3.83;;
21825;SDS011;11075;47.944;11.776;2023-12-07T10:38:10;4.73;;;3.90;;
21825;SDS011;11075;47.944;11.776;2023-12-07T10:40:39;6.13;;;4.40;;
21825;SDS011;11075;47.944;11.776;2023-12-07T10:43:07;6.70;;;4.57;;
21825;SDS011;11075;47.944;11.776;2023-12-07T10:45:35;6.50;;;4.10;;
21825;SDS011;11075;47.944;11.776;2023-12-07T10:48:07;5.40;;;3.50;;
21825;SDS011;11075;47.944;11.776;2023-12-07T10:50:37;5.27;;;3.97;;
21825;SDS011;11075;47.944;11.776;2023-12-07T10:53:11;5.13;;;4.37;;
21825;SDS011;11075;47.944;11.776;2023-12-07T10:55:46;6.30;;;5.13;;
21825;SDS011;11075;47.944;11.776;2023-12-07T10:58:19;10.13;;;4.37;;
21825;SDS011;11075;47.944;11.776;2023-12-07T11:00:47;6.27;;;4.17;;
21825;SDS011;11075;47.944;11.776;2023-12-07T11:03:15;4.70;;;3.50;;
21825;SDS011;11075;47.944;11.776;2023-12-07T11:05:44;5.50;;;3.60;;
21825;SDS011;11075;47.944;11.776;2023-12-07T11:08:14;3.90;;;3.10;;
21825;SDS011;11075;47.944;11.776;2023-12-07T11:10:48;5.93;;;3.00;;
21825;SDS011;11075;47.944;11.776;2023-12-07T11:13:25;6.60;;;3.73;;
21825;SDS011;11075;47.944;11.776;2023-12-07T11:15:59;3.43;;;3.10;;
21825;SDS011;11075;47.944;11.776;2023-12-07T11:18:27;4.07;;;2.90;;
21825;SDS011;11075;47.944;11.776;2023-12-07T11:20:55;4.40;;;2.53;;
21825;SDS011;11075;47.944;11.776;2023-12-07T11:23:23;3.30;;;2.23;;
21825;SDS011;11075;47.944;11.776;2023-12-07T11:25:52;2.73;;;2.17;;
21825;SDS011;11075;47.944;11.776;2023-12-07T11:28:19;4.27;;;2.70;;
21825;SDS011;11075;47.944;11.776;2023-12-07T11:31:01;2.17;;;1.33;;
21825;SDS011;11075;47.944;11.776;2023-12-07T11:33:29;3.20;;;1.60;;
21825;SDS011;11075;47.944;11.776;2023-12-07T11:38:29;4.07;;;1.60;;
21825;SDS011;11075;47.944;11.776;2023-12-07T11:40:56;2.20;;;1.73;;
21825;SDS011;11075;47.944;11.776;2023-12-07T11:46:00;3.03;;;1.80;;
21825;SDS011;11075;47.944;11.776;2023-12-07T11:48:26;3.30;;;2.57;;
21825;SDS011;11075;47.944;11.776;2023-12-07T11:53:25;2.10;;;1.83;;
21825;SDS011;11075;47.944;11.776;2023-12-07T11:55:53;4.80;;;2.57;;
21825;SDS011;11075;47.944;11.776;2023-12-07T11:58:20;2.30;;;2.10;;
21825;SDS011;11075;47.944;11.776;2023-12-07T12:00:48;2.80;;;2.20;;
21825;SDS011;11075;47.944;11.776;2023-12-07T12:03:14;3.03;;;1.77;;
21825;SDS011;11075;47.944;11.776;2023-12-07T12:05:41;2.47;;;1.80;;
21825;SDS011;11075;47.944;11.776;2023-12-07T12:08:10;3.33;;;2.20;;
21825;SDS011;11075;47.944;11.776;2023-12-07T12:10:37;4.20;;;2.00;;
21825;SDS011;11075;47.944;11.776;2023-12-07T12:13:06;2.70;;;2.17;;
21825;SDS011;11075;47.944;11.776;2023-12-07T12:15:34;2.30;;;2.10;;
21825;SDS011;11075;47.944;11.776;2023-12-07T12:18:01;3.33;;;2.20;;
21825;SDS011;11075;47.944;11.776;2023-12-07T12:20:29;4.83;;;2.73;;
21825;SDS011;11075;47.944;11.776;2023-12-07T12:22:56;9.37;;;4.57;;
21825;SDS011;11075;47.944;11.776;2023-12-07T12:25:27;5.93;;;3.80;;
21825;SDS011;11075;47.944;11.776;2023-12-07T12:27:58;5.37;;;2.67;;
21825;SDS011;11075;47.944;11.776;2023-12-07T12:30:30;5.90;;;3.70;;
21825;SDS011;11075;47.944;11.776;2023-12-07T12:32:57;6.00;;;4.13;;
21825;SDS011;11075;47.944;11.776;2023-12-07T12:35:26;4.57;;;3.10;;
21825;SDS011;11075;47.944;11.776;2023-12-07T12:37:54;4.57;;;3.10;;
21825;SDS011;11075;47.944;11.776;2023-12-07T12:40:28;12.83;;;6.77;;
21825;SDS011;11075;47.944;11.776;2023-12-07T12:42:58;10.40;;;4.47;;
21825;SDS011;11075;47.944;11.776;2023-12-07T12:45:26;7.10;;;4.50;;
21825;SDS011;11075;47.944;11.776;2023-12-07T12:47:54;4.53;;;2.93;;
21825;SDS011;11075;47.944;11.776;2023-12-07T12:50:37;3.87;;;3.10;;
21825;SDS011;11075;47.944;11.776;2023-12-07T12:53:05;6.90;;;3.23;;
21825;SDS011;11075;47.944;11.776;2023-12-07T12:55:35;8.07;;;4.33;;
21825;SDS011;11075;47.944;11.776;2023-12-07T12:58:04;8.13;;;3.20;;
21825;SDS011;11075;47.944;11.776;2023-12-07T13:00:34;5.90;;;3.67;;
21825;SDS011;11075;47.944;11.776;2023-12-07T13:03:04;4.67;;;3.57;;
21825;SDS011;11075;47.944;11.776;2023-12-07T13:05:32;5.10;;;3.60;;
21825;SDS011;11075;47.944;11.776;2023-12-07T13:08:01;6.23;;;4.17;;
21825;SDS011;11075;47.944;11.776;2023-12-07T13:10:31;6.73;;;4.70;;
21825;SDS011;11075;47.944;11.776;2023-12-07T13:13:00;7.37;;;4.53;;
21825;SDS011;11075;47.944;11.776;2023-12-07T13:15:27;7.50;;;4.03;;
21825;SDS011;11075;47.944;11.776;2023-12-07T13:17:54;7.23;;;4.70;;
21825;SDS011;11075;47.944;11.776;2023-12-07T13:20:21;8.60;;;4.60;;
21825;SDS011;11075;47.944;11.776;2023-12-07T13:22:49;8.50;;;5.53;;
21825;SDS011;11075;47.944;11.776;2023-12-07T13:25:16;11.17;;;5.80;;
21825;SDS011;11075;47.944;11.776;2023-12-07T13:27:43;8.40;;;5.33;;
21825;SDS011;11075;47.944;11.776;2023-12-07T13:30:10;7.53;;;5.40;;
21825;SDS011;11075;47.944;11.776;2023-12-07T13:32:37;8.40;;;5.60;;
21825;SDS011;11075;47.944;11.776;2023-12-07T13:35:05;7.93;;;5.00;;
21825;SDS011;11075;47.944;11.776;2023-12-07T13:37:34;9.93;;;5.47;;
21825;SDS011;11075;47.944;11.776;2023-12-07T13:40:01;12.73;;;5.73;;
21825;SDS011;11075;47.944;11.776;2023-12-07T13:42:30;8.93;;;5.80;;
21825;SDS011;11075;47.944;11.776;2023-12-07T13:44:58;10.20;;;5.77;;
21825;SDS011;11075;47.944;11.776;2023-12-07T13:47:28;10.70;;;6.73;;
21825;SDS011;11075;47.944;11.776;2023-12-07T13:49:58;12.17;;;8.77;;
21825;SDS011;11075;47.944;11.776;2023-12-07T13:52:26;16.10;;;10.17;;
21825;SDS011;11075;47.944;11.776;2023-12-07T13:54:55;10.70;;;7.10;;
21825;SDS011;11075;47.944;11.776;2023-12-07T13:57:23;8.17;;;5.30;;
21825;SDS011;11075;47.944;11.776;2023-12-07T13:59:54;8.57;;;5.80;;
21825;SDS011;11075;47.944;11.776;2023-12-07T14:02:21;7.40;;;5.20;;
21825;SDS011;11075;47.944;11.776;2023-12-07T14:04:48;12.10;;;5.97;;
21825;SDS011;11075;47.944;11.776;2023-12-07T14:07:21;20.17;;;11.57;;
21825;SDS011;11075;47.944;11.776;2023-12-07T14:09:51;11.53;;;7.77;;
21825;SDS011;11075;47.944;11.776;2023-12-07T14:12:24;10.70;;;6.50;;
21825;SDS011;11075;47.944;11.776;2023-12-07T14:14:52;9.13;;;5.93;;
21825;SDS011;11075;47.944;11.776;2023-12-07T14:17:22;9.80;;;5.37;;
21825;SDS011;11075;47.944;11.776;2023-12-07T14:20:06;9.83;;;5.47;;
21825;SDS011;11075;47.944;11.776;2023-12-07T14:22:54;8.37;;;6.10;;
21825;SDS011;11075;47.944;11.776;2023-12-07T14:25:23;9.63;;;6.23;;
21825;SDS011;11075;47.944;11.776;2023-12-07T14:27:50;10.50;;;6.23;;
21825;SDS011;11075;47.944;11.776;2023-12-07T14:30:17;12.00;;;6.20;;
21825;SDS011;11075;47.944;11.776;2023-12-07T14:32:44;12.33;;;7.50;;